Terminal Aerodrome Forecast
Issued by NWS

Home | Current Version | Previous Version | Graphics & Text | Print | Product List | Glossary On
Versions: 1 2 3 4 5 6 7 8 9 10 11 12 13 14 15 16 17 18 19 20 21 22 23 24 25 26 27 28 29 30 31 32 33 34 35 36 37 38
000
FTUS43 KGRB 251733
TAFRHI
TAF
KRHI 251733Z 2518/2618 08003KT P6SM BKN050
     FM252300 14002KT P6SM SCT100
     FM261000 16004KT P6SM BKN080
     FM261700 18006KT P6SM BKN060=

USA.gov is the U.S. government's official web portal to all federal, state and local government web resources and services.